Terminal Aerodrome Forecast
Issued by NWS

Home | Current Version | Previous Version | Graphics & Text | Print | Product List | Glossary On
Versions: 1 2 3 4 5 6 7 8 9 10 11 12 13 14 15 16 17 18 19 20
000
FTUS43 KMPX 161300 AAA
TAFAXN
TAF AMD
KAXN 161338Z 1614/1712 09020G27KT 2SM -SN OVC010
      TEMPO 1614/1616 1/2SM SN FZFG VV007
     FM161600 08022G29KT 1 1/2SM -SN OVC008
      TEMPO 1616/1619 1/2SM SN VV003
     FM161900 06018G23KT 3/4SM -SN BR VV005
     FM162200 03018G24KT 3SM -SN OVC010
     FM170300 01015G21KT 5SM -SN OVC020
     FM170700 35012KT P6SM BKN020=

USA.gov is the U.S. government's official web portal to all federal, state and local government web resources and services.